sensor_id;sensor_type;location;lat;lon;timestamp;pressure;altitude;pressure_sealevel;temperature;humidity
45813;BME280;31519;45.408;10.962;2023-05-28T00:01:32;100759.88;;;25.84;52.72
45813;BME280;31519;45.408;10.962;2023-05-28T00:04:00;100764.84;;;25.96;52.90
45813;BME280;31519;45.408;10.962;2023-05-28T00:06:29;100761.03;;;25.86;53.40
45813;BME280;31519;45.408;10.962;2023-05-28T00:08:57;100759.13;;;25.83;52.62
45813;BME280;31519;45.408;10.962;2023-05-28T00:11:25;100753.03;;;25.58;53.25
45813;BME280;31519;45.408;10.962;2023-05-28T00:13:55;100761.13;;;25.72;53.14
45813;BME280;31519;45.408;10.962;2023-05-28T00:16:23;100759.56;;;25.71;53.66
45813;BME280;31519;45.408;10.962;2023-05-28T00:18:51;100750.28;;;25.65;53.50
45813;BME280;31519;45.408;10.962;2023-05-28T00:21:19;100751.75;;;25.77;52.52
45813;BME280;31519;45.408;10.962;2023-05-28T00:23:48;100757.63;;;25.75;52.58
45813;BME280;31519;45.408;10.962;2023-05-28T00:26:16;100746.75;;;25.65;53.32
45813;BME280;31519;45.408;10.962;2023-05-28T00:28:47;100754.56;;;25.66;53.00
45813;BME280;31519;45.408;10.962;2023-05-28T00:31:15;100744.72;;;25.76;53.04
45813;BME280;31519;45.408;10.962;2023-05-28T00:33:44;100752.97;;;25.69;53.24
45813;BME280;31519;45.408;10.962;2023-05-28T00:36:12;100736.22;;;25.70;53.26
45813;BME280;31519;45.408;10.962;2023-05-28T00:38:41;100731.88;;;25.73;52.87
45813;BME280;31519;45.408;10.962;2023-05-28T00:41:09;100726.25;;;25.39;54.36
45813;BME280;31519;45.408;10.962;2023-05-28T00:43:38;100725.41;;;25.45;54.34
45813;BME280;31519;45.408;10.962;2023-05-28T00:46:06;100732.44;;;25.46;54.42
45813;BME280;31519;45.408;10.962;2023-05-28T00:48:35;100725.06;;;25.43;54.23
45813;BME280;31519;45.408;10.962;2023-05-28T00:51:03;100726.19;;;25.46;53.76
45813;BME280;31519;45.408;10.962;2023-05-28T00:53:31;100729.69;;;25.50;53.49
45813;BME280;31519;45.408;10.962;2023-05-28T00:55:59;100726.94;;;25.50;53.22
45813;BME280;31519;45.408;10.962;2023-05-28T00:58:28;100730.06;;;25.55;52.54
45813;BME280;31519;45.408;10.962;2023-05-28T01:00:56;100722.25;;;25.61;52.24
45813;BME280;31519;45.408;10.962;2023-05-28T01:03:24;100718.09;;;25.90;51.96
45813;BME280;31519;45.408;10.962;2023-05-28T01:05:53;100719.50;;;25.57;52.98
45813;BME280;31519;45.408;10.962;2023-05-28T01:08:25;100719.13;;;25.59;53.56
45813;BME280;31519;45.408;10.962;2023-05-28T01:10:53;100718.75;;;25.57;53.61
45813;BME280;31519;45.408;10.962;2023-05-28T01:13:22;100719.50;;;25.57;53.92
45813;BME280;31519;45.408;10.962;2023-05-28T01:15:50;100721.03;;;25.66;53.86
45813;BME280;31519;45.408;10.962;2023-05-28T01:18:19;100726.81;;;25.75;53.83
45813;BME280;31519;45.408;10.962;2023-05-28T01:20:47;100720.47;;;25.85;53.38
45813;BME280;31519;45.408;10.962;2023-05-28T01:23:18;100715.97;;;25.64;54.52
45813;BME280;31519;45.408;10.962;2023-05-28T01:25:52;100710.78;;;25.84;53.89
45813;BME280;31519;45.408;10.962;2023-05-28T01:28:21;100711.28;;;25.65;54.13
45813;BME280;31519;45.408;10.962;2023-05-28T01:30:49;100720.19;;;25.72;53.07
45813;BME280;31519;45.408;10.962;2023-05-28T01:33:19;100714.16;;;25.98;52.29
45813;BME280;31519;45.408;10.962;2023-05-28T01:35:56;100708.84;;;25.77;50.74
45813;BME280;31519;45.408;10.962;2023-05-28T01:38:26;100709.13;;;25.90;50.15
45813;BME280;31519;45.408;10.962;2023-05-28T01:40:56;100711.25;;;25.68;50.22
45813;BME280;31519;45.408;10.962;2023-05-28T01:43:24;100706.66;;;25.58;50.59
45813;BME280;31519;45.408;10.962;2023-05-28T01:45:53;100702.03;;;25.99;49.46
45813;BME280;31519;45.408;10.962;2023-05-28T01:48:23;100707.72;;;25.71;48.65
45813;BME280;31519;45.408;10.962;2023-05-28T01:50:53;100699.78;;;25.91;48.83
45813;BME280;31519;45.408;10.962;2023-05-28T01:53:21;100698.13;;;26.00;47.88
45813;BME280;31519;45.408;10.962;2023-05-28T01:55:49;100707.19;;;25.94;47.74
45813;BME280;31519;45.408;10.962;2023-05-28T01:58:19;100699.38;;;25.92;47.53
45813;BME280;31519;45.408;10.962;2023-05-28T02:00:59;100694.97;;;25.57;47.94
45813;BME280;31519;45.408;10.962;2023-05-28T02:03:31;100694.75;;;25.89;47.98
45813;BME280;31519;45.408;10.962;2023-05-28T02:05:59;100697.50;;;25.82;47.41
45813;BME280;31519;45.408;10.962;2023-05-28T02:08:28;100689.56;;;26.02;47.01
45813;BME280;31519;45.408;10.962;2023-05-28T02:10:57;100689.31;;;25.82;47.08
45813;BME280;31519;45.408;10.962;2023-05-28T02:13:26;100689.63;;;25.91;46.98
45813;BME280;31519;45.408;10.962;2023-05-28T02:15:55;100692.13;;;25.72;46.96
45813;BME280;31519;45.408;10.962;2023-05-28T02:18:26;100692.59;;;25.63;47.41
45813;BME280;31519;45.408;10.962;2023-05-28T02:20:54;100693.75;;;25.66;47.14
45813;BME280;31519;45.408;10.962;2023-05-28T02:23:22;100692.09;;;25.79;47.51
45813;BME280;31519;45.408;10.962;2023-05-28T02:30:28;100691.00;;;25.69;47.50
45813;BME280;31519;45.408;10.962;2023-05-28T02:32:56;100689.81;;;25.70;47.43
45813;BME280;31519;45.408;10.962;2023-05-28T02:35:24;100693.72;;;25.69;47.83
45813;BME280;31519;45.408;10.962;2023-05-28T02:37:54;100693.63;;;25.83;47.54
45813;BME280;31519;45.408;10.962;2023-05-28T02:40:22;100699.66;;;25.57;47.22
45813;BME280;31519;45.408;10.962;2023-05-28T02:42:51;100688.66;;;25.68;47.93
45813;BME280;31519;45.408;10.962;2023-05-28T02:45:19;100691.63;;;25.87;46.61
45813;BME280;31519;45.408;10.962;2023-05-28T02:47:48;100685.78;;;25.89;46.90
45813;BME280;31519;45.408;10.962;2023-05-28T02:50:18;100695.13;;;25.88;46.77
45813;BME280;31519;45.408;10.962;2023-05-28T02:53:33;100685.34;;;25.94;45.96
45813;BME280;31519;45.408;10.962;2023-05-28T02:59:20;100690.59;;;25.67;45.06
45813;BME280;31519;45.408;10.962;2023-05-28T03:01:49;100688.31;;;25.66;44.79
45813;BME280;31519;45.408;10.962;2023-05-28T03:04:17;100690.19;;;25.72;45.13
45813;BME280;31519;45.408;10.962;2023-05-28T03:06:46;100691.00;;;25.69;44.50
45813;BME280;31519;45.408;10.962;2023-05-28T03:09:14;100695.69;;;25.69;44.47
45813;BME280;31519;45.408;10.962;2023-05-28T03:11:45;100695.63;;;25.72;43.74
45813;BME280;31519;45.408;10.962;2023-05-28T03:14:13;100689.41;;;25.72;43.81
45813;BME280;31519;45.408;10.962;2023-05-28T03:16:41;100681.22;;;25.72;43.82
45813;BME280;31519;45.408;10.962;2023-05-28T03:19:20;100690.19;;;25.72;43.71
45813;BME280;31519;45.408;10.962;2023-05-28T03:21:49;100686.31;;;25.70;43.65
45813;BME280;31519;45.408;10.962;2023-05-28T03:24:19;100691.81;;;25.63;43.44
45813;BME280;31519;45.408;10.962;2023-05-28T03:26:52;100691.13;;;25.99;43.28
45813;BME280;31519;45.408;10.962;2023-05-28T03:29:23;100694.41;;;25.80;43.12
45813;BME280;31519;45.408;10.962;2023-05-28T03:32:00;100702.25;;;25.75;43.53
45813;BME280;31519;45.408;10.962;2023-05-28T03:34:28;100694.84;;;25.72;43.67
45813;BME280;31519;45.408;10.962;2023-05-28T03:36:57;100699.19;;;25.69;43.45
45813;BME280;31519;45.408;10.962;2023-05-28T03:39:26;100690.66;;;25.64;43.31
45813;BME280;31519;45.408;10.962;2023-05-28T03:41:54;100693.97;;;25.85;43.30
45813;BME280;31519;45.408;10.962;2023-05-28T03:44:26;100688.94;;;25.84;42.96
45813;BME280;31519;45.408;10.962;2023-05-28T03:46:54;100686.81;;;25.54;43.07
45813;BME280;31519;45.408;10.962;2023-05-28T03:49:22;100692.19;;;25.65;43.15
45813;BME280;31519;45.408;10.962;2023-05-28T03:51:51;100690.53;;;25.78;42.91
45813;BME280;31519;45.408;10.962;2023-05-28T03:54:19;100691.31;;;25.78;42.92
45813;BME280;31519;45.408;10.962;2023-05-28T03:56:48;100690.16;;;25.76;42.98
45813;BME280;31519;45.408;10.962;2023-05-28T03:59:16;100694.50;;;25.70;43.36
45813;BME280;31519;45.408;10.962;2023-05-28T04:01:45;100694.06;;;25.75;43.42
45813;BME280;31519;45.408;10.962;2023-05-28T04:04:13;100701.47;;;25.74;42.98
45813;BME280;31519;45.408;10.962;2023-05-28T04:06:45;100693.75;;;25.62;43.57
45813;BME280;31519;45.408;10.962;2023-05-28T04:09:13;100703.69;;;25.90;43.41
45813;BME280;31519;45.408;10.962;2023-05-28T04:11:43;100694.59;;;25.55;43.75
45813;BME280;31519;45.408;10.962;2023-05-28T04:14:14;100702.50;;;25.91;43.35
45813;BME280;31519;45.408;10.962;2023-05-28T04:16:42;100707.03;;;25.60;43.93
45813;BME280;31519;45.408;10.962;2023-05-28T04:19:11;100710.44;;;25.75;43.99
45813;BME280;31519;45.408;10.962;2023-05-28T04:21:40;100704.88;;;25.89;43.31
45813;BME280;31519;45.408;10.962;2023-05-28T04:24:08;100703.13;;;26.09;43.27
45813;BME280;31519;45.408;10.962;2023-05-28T04:26:36;100703.13;;;26.09;43.11
45813;BME280;31519;45.408;10.962;2023-05-28T04:29:05;100710.34;;;25.85;43.30
45813;BME280;31519;45.408;10.962;2023-05-28T04:31:34;100711.13;;;25.89;43.11
45813;BME280;31519;45.408;10.962;2023-05-28T04:34:03;100708.59;;;25.61;43.77
45813;BME280;31519;45.408;10.962;2023-05-28T04:36:32;100709.72;;;25.67;43.74
45813;BME280;31519;45.408;10.962;2023-05-28T04:39:01;100707.88;;;25.46;43.89
45813;BME280;31519;45.408;10.962;2023-05-28T04:41:34;100715.22;;;25.53;43.69
45813;BME280;31519;45.408;10.962;2023-05-28T04:44:02;100712.75;;;25.80;43.53
45813;BME280;31519;45.408;10.962;2023-05-28T04:46:30;100722.34;;;25.98;43.22
45813;BME280;31519;45.408;10.962;2023-05-28T04:48:59;100723.63;;;25.83;43.44
45813;BME280;31519;45.408;10.962;2023-05-28T04:51:27;100717.03;;;25.77;43.76
45813;BME280;31519;45.408;10.962;2023-05-28T04:53:55;100726.69;;;25.92;43.63
45813;BME280;31519;45.408;10.962;2023-05-28T04:56:24;100720.47;;;25.88;43.23
45813;BME280;31519;45.408;10.962;2023-05-28T04:58:52;100722.03;;;25.89;43.74
45813;BME280;31519;45.408;10.962;2023-05-28T05:01:21;100720.50;;;25.81;43.45
45813;BME280;31519;45.408;10.962;2023-05-28T05:03:50;100713.38;;;25.94;43.46
45813;BME280;31519;45.408;10.962;2023-05-28T05:06:19;100720.19;;;25.72;44.29
45813;BME280;31519;45.408;10.962;2023-05-28T05:08:48;100723.66;;;25.80;44.13
45813;BME280;31519;45.408;10.962;2023-05-28T05:11:16;100723.09;;;25.99;43.85
45813;BME280;31519;45.408;10.962;2023-05-28T05:13:45;100716.44;;;26.03;43.55
45813;BME280;31519;45.408;10.962;2023-05-28T05:19:34;100714.63;;;25.86;44.41
45813;BME280;31519;45.408;10.962;2023-05-28T05:22:03;100721.13;;;26.03;44.32
45813;BME280;31519;45.408;10.962;2023-05-28T05:24:33;100719.28;;;25.93;44.52
45813;BME280;31519;45.408;10.962;2023-05-28T05:27:01;100710.41;;;26.26;44.01
45813;BME280;31519;45.408;10.962;2023-05-28T05:29:29;100720.84;;;26.72;43.33
45813;BME280;31519;45.408;10.962;2023-05-28T05:31:58;100720.06;;;26.38;44.99
45813;BME280;31519;45.408;10.962;2023-05-28T05:34:26;100715.06;;;26.29;46.09
45813;BME280;31519;45.408;10.962;2023-05-28T05:37:20;100707.72;;;26.19;47.20
45813;BME280;31519;45.408;10.962;2023-05-28T05:40:10;100720.78;;;25.97;48.27
45813;BME280;31519;45.408;10.962;2023-05-28T05:42:57;100704.19;;;26.26;47.64
45813;BME280;31519;45.408;10.962;2023-05-28T05:45:27;100710.44;;;26.19;48.39
45813;BME280;31519;45.408;10.962;2023-05-28T05:47:56;100699.63;;;26.09;48.44
45813;BME280;31519;45.408;10.962;2023-05-28T05:50:24;100706.59;;;26.13;48.75
45813;BME280;31519;45.408;10.962;2023-05-28T05:52:55;100704.50;;;26.31;48.66
45813;BME280;31519;45.408;10.962;2023-05-28T05:55:23;100710.97;;;26.48;48.49
45813;BME280;31519;45.408;10.962;2023-05-28T05:57:51;100710.94;;;26.52;48.58
45813;BME280;31519;45.408;10.962;2023-05-28T06:00:21;100714.50;;;26.45;48.10
45813;BME280;31519;45.408;10.962;2023-05-28T06:02:55;100696.63;;;26.74;47.48
45813;BME280;31519;45.408;10.962;2023-05-28T06:05:51;100699.97;;;27.19;46.68
45813;BME280;31519;45.408;10.962;2023-05-28T06:08:35;100699.63;;;26.83;47.28
45813;BME280;31519;45.408;10.962;2023-05-28T06:11:14;100700.72;;;26.93;47.40
45813;BME280;31519;45.408;10.962;2023-05-28T06:13:42;100696.00;;;27.24;46.07
45813;BME280;31519;45.408;10.962;2023-05-28T06:16:10;100698.72;;;27.24;45.65
45813;BME280;31519;45.408;10.962;2023-05-28T06:18:40;100695.81;;;27.65;45.19
45813;BME280;31519;45.408;10.962;2023-05-28T06:21:10;100691.28;;;27.78;44.61
45813;BME280;31519;45.408;10.962;2023-05-28T06:23:39;100692.22;;;27.41;44.61
45813;BME280;31519;45.408;10.962;2023-05-28T06:26:07;100693.66;;;27.53;44.72
45813;BME280;31519;45.408;10.962;2023-05-28T06:35:43;100694.88;;;27.98;43.08
45813;BME280;31519;45.408;10.962;2023-05-28T06:38:12;100695.19;;;28.67;42.28
45813;BME280;31519;45.408;10.962;2023-05-28T06:40:42;100695.06;;;28.11;41.06
45813;BME280;31519;45.408;10.962;2023-05-28T06:43:11;100692.72;;;28.52;40.14
45813;BME280;31519;45.408;10.962;2023-05-28T06:46:02;100689.06;;;28.39;38.90
45813;BME280;31519;45.408;10.962;2023-05-28T06:48:30;100694.56;;;27.93;39.77
45813;BME280;31519;45.408;10.962;2023-05-28T06:50:58;100692.34;;;28.07;39.60
45813;BME280;31519;45.408;10.962;2023-05-28T06:53:27;100688.25;;;27.96;40.03
45813;BME280;31519;45.408;10.962;2023-05-28T06:55:56;100689.34;;;28.45;39.46
45813;BME280;31519;45.408;10.962;2023-05-28T06:58:34;100687.38;;;28.26;39.47
45813;BME280;31519;45.408;10.962;2023-05-28T07:01:27;100692.91;;;27.99;39.80
45813;BME280;31519;45.408;10.962;2023-05-28T07:04:19;100697.47;;;27.59;40.29
45813;BME280;31519;45.408;10.962;2023-05-28T07:06:49;100687.28;;;27.83;40.08
45813;BME280;31519;45.408;10.962;2023-05-28T07:09:27;100684.84;;;27.38;41.26
45813;BME280;31519;45.408;10.962;2023-05-28T07:11:56;100689.69;;;28.04;40.18
45813;BME280;31519;45.408;10.962;2023-05-28T07:14:24;100684.84;;;28.35;39.73
45813;BME280;31519;45.408;10.962;2023-05-28T07:16:53;100680.91;;;28.36;39.43
45813;BME280;31519;45.408;10.962;2023-05-28T07:19:22;100689.34;;;28.84;38.73
45813;BME280;31519;45.408;10.962;2023-05-28T07:21:51;100682.72;;;28.23;39.29
45813;BME280;31519;45.408;10.962;2023-05-28T07:24:20;100689.19;;;28.52;39.90
45813;BME280;31519;45.408;10.962;2023-05-28T07:26:49;100696.78;;;29.03;39.25
45813;BME280;31519;45.408;10.962;2023-05-28T07:29:19;100695.94;;;29.06;38.39
45813;BME280;31519;45.408;10.962;2023-05-28T07:31:47;100687.09;;;28.40;39.46
45813;BME280;31519;45.408;10.962;2023-05-28T07:34:19;100695.25;;;28.63;39.18
45813;BME280;31519;45.408;10.962;2023-05-28T07:36:47;100695.44;;;29.12;38.42
45813;BME280;31519;45.408;10.962;2023-05-28T07:39:16;100691.22;;;29.07;38.84
45813;BME280;31519;45.408;10.962;2023-05-28T07:41:44;100700.69;;;29.22;38.84
45813;BME280;31519;45.408;10.962;2023-05-28T07:44:19;100694.13;;;29.00;39.17
45813;BME280;31519;45.408;10.962;2023-05-28T07:51:00;100690.75;;;28.92;39.11
45813;BME280;31519;45.408;10.962;2023-05-28T07:53:36;100692.75;;;28.92;38.50
45813;BME280;31519;45.408;10.962;2023-05-28T07:56:08;100694.31;;;29.09;38.72
45813;BME280;31519;45.408;10.962;2023-05-28T07:58:38;100684.22;;;28.67;38.56
45813;BME280;31519;45.408;10.962;2023-05-28T08:01:06;100689.84;;;29.15;37.79
45813;BME280;31519;45.408;10.962;2023-05-28T08:03:39;100682.59;;;28.49;38.66
45813;BME280;31519;45.408;10.962;2023-05-28T08:06:08;100683.19;;;28.80;38.51
45813;BME280;31519;45.408;10.962;2023-05-28T08:08:39;100688.13;;;28.03;39.73
45813;BME280;31519;45.408;10.962;2023-05-28T08:11:10;100681.81;;;28.88;39.10
45813;BME280;31519;45.408;10.962;2023-05-28T08:13:41;100684.94;;;29.42;37.97
45813;BME280;31519;45.408;10.962;2023-05-28T08:16:11;100677.56;;;29.23;37.94
45813;BME280;31519;45.408;10.962;2023-05-28T08:19:04;100671.94;;;28.75;37.88
45813;BME280;31519;45.408;10.962;2023-05-28T08:21:34;100673.38;;;28.99;37.79
45813;BME280;31519;45.408;10.962;2023-05-28T08:24:07;100677.69;;;29.16;38.07
45813;BME280;31519;45.408;10.962;2023-05-28T08:26:37;100675.63;;;29.04;37.13
45813;BME280;31519;45.408;10.962;2023-05-28T08:29:06;100673.13;;;28.74;37.10
45813;BME280;31519;45.408;10.962;2023-05-28T08:31:40;100667.66;;;28.54;37.79
45813;BME280;31519;45.408;10.962;2023-05-28T08:34:21;100670.91;;;29.40;37.30
45813;BME280;31519;45.408;10.962;2023-05-28T08:36:50;100677.34;;;29.82;36.13
45813;BME280;31519;45.408;10.962;2023-05-28T08:39:24;100672.34;;;29.93;35.65
45813;BME280;31519;45.408;10.962;2023-05-28T08:41:57;100669.78;;;29.86;35.16
45813;BME280;31519;45.408;10.962;2023-05-28T08:44:25;100664.03;;;29.48;35.75
45813;BME280;31519;45.408;10.962;2023-05-28T08:46:55;100668.75;;;28.96;36.56
45813;BME280;31519;45.408;10.962;2023-05-28T08:50:07;100663.84;;;29.23;36.03
45813;BME280;31519;45.408;10.962;2023-05-28T08:52:52;100673.75;;;29.69;34.67
45813;BME280;31519;45.408;10.962;2023-05-28T08:55:21;100671.06;;;29.98;34.67
45813;BME280;31519;45.408;10.962;2023-05-28T08:57:58;100667.50;;;28.81;35.92
45813;BME280;31519;45.408;10.962;2023-05-28T09:00:26;100660.59;;;29.44;35.38
45813;BME280;31519;45.408;10.962;2023-05-28T09:03:15;100655.88;;;29.77;34.55
45813;BME280;31519;45.408;10.962;2023-05-28T09:05:44;100663.69;;;29.79;35.21
45813;BME280;31519;45.408;10.962;2023-05-28T09:08:13;100658.00;;;30.31;34.35
45813;BME280;31519;45.408;10.962;2023-05-28T09:10:43;100658.34;;;30.04;34.39
45813;BME280;31519;45.408;10.962;2023-05-28T09:13:12;100655.31;;;29.37;35.30
45813;BME280;31519;45.408;10.962;2023-05-28T09:15:41;100658.03;;;29.01;36.46
45813;BME280;31519;45.408;10.962;2023-05-28T09:18:11;100652.72;;;29.46;35.54
45813;BME280;31519;45.408;10.962;2023-05-28T09:20:39;100648.44;;;30.07;35.04
45813;BME280;31519;45.408;10.962;2023-05-28T09:23:09;100640.44;;;30.28;33.99
45813;BME280;31519;45.408;10.962;2023-05-28T09:26:02;100643.56;;;30.43;34.19
45813;BME280;31519;45.408;10.962;2023-05-28T09:28:41;100654.75;;;28.90;35.53
45813;BME280;31519;45.408;10.962;2023-05-28T09:31:11;100647.25;;;28.15;36.89
45813;BME280;31519;45.408;10.962;2023-05-28T09:33:41;100638.97;;;29.14;36.80
45813;BME280;31519;45.408;10.962;2023-05-28T09:36:11;100636.69;;;30.35;34.71
45813;BME280;31519;45.408;10.962;2023-05-28T09:38:43;100646.44;;;29.78;34.77
45813;BME280;31519;45.408;10.962;2023-05-28T09:44:01;100635.72;;;30.42;34.54
45813;BME280;31519;45.408;10.962;2023-05-28T09:46:32;100625.56;;;30.55;34.61
45813;BME280;31519;45.408;10.962;2023-05-28T09:49:02;100628.09;;;29.91;34.27
45813;BME280;31519;45.408;10.962;2023-05-28T09:51:32;100627.25;;;30.77;33.77
45813;BME280;31519;45.408;10.962;2023-05-28T09:54:04;100619.56;;;31.10;33.56
45813;BME280;31519;45.408;10.962;2023-05-28T09:56:37;100620.78;;;31.35;33.21
45813;BME280;31519;45.408;10.962;2023-05-28T09:59:11;100623.53;;;31.35;33.25
45813;BME280;31519;45.408;10.962;2023-05-28T10:01:49;100617.88;;;31.51;32.62
45813;BME280;31519;45.408;10.962;2023-05-28T10:04:31;100616.88;;;31.45;33.01
45813;BME280;31519;45.408;10.962;2023-05-28T10:07:04;100617.56;;;31.83;32.57
45813;BME280;31519;45.408;10.962;2023-05-28T10:09:34;100617.84;;;31.63;32.40
45813;BME280;31519;45.408;10.962;2023-05-28T10:12:10;100608.63;;;31.45;32.86
45813;BME280;31519;45.408;10.962;2023-05-28T10:14:41;100616.09;;;31.44;32.74
45813;BME280;31519;45.408;10.962;2023-05-28T10:17:10;100604.81;;;31.04;33.52
45813;BME280;31519;45.408;10.962;2023-05-28T10:19:40;100609.25;;;31.49;32.51
45813;BME280;31519;45.408;10.962;2023-05-28T10:22:09;100617.88;;;29.43;35.13
45813;BME280;31519;45.408;10.962;2023-05-28T10:25:03;100611.44;;;29.66;34.85
45813;BME280;31519;45.408;10.962;2023-05-28T10:27:41;100608.34;;;29.97;35.58
45813;BME280;31519;45.408;10.962;2023-05-28T10:30:11;100605.16;;;31.06;33.95
45813;BME280;31519;45.408;10.962;2023-05-28T10:32:43;100607.13;;;31.78;32.97
45813;BME280;31519;45.408;10.962;2023-05-28T10:35:11;100595.03;;;31.97;32.32
45813;BME280;31519;45.408;10.962;2023-05-28T10:37:40;100594.69;;;31.95;32.02
45813;BME280;31519;45.408;10.962;2023-05-28T10:40:09;100592.13;;;31.32;32.51
45813;BME280;31519;45.408;10.962;2023-05-28T10:42:41;100592.78;;;31.36;32.87
45813;BME280;31519;45.408;10.962;2023-05-28T10:45:10;100591.59;;;30.99;32.63
45813;BME280;31519;45.408;10.962;2023-05-28T10:47:41;100587.69;;;31.60;32.96
45813;BME280;31519;45.408;10.962;2023-05-28T10:50:17;100594.78;;;32.04;31.70
45813;BME280;31519;45.408;10.962;2023-05-28T10:53:08;100590.38;;;32.29;31.48
45813;BME280;31519;45.408;10.962;2023-05-28T10:55:52;100587.22;;;32.39;31.23
45813;BME280;31519;45.408;10.962;2023-05-28T11:01:26;100584.28;;;31.56;32.97
45813;BME280;31519;45.408;10.962;2023-05-28T11:03:54;100581.53;;;31.56;32.20
45813;BME280;31519;45.408;10.962;2023-05-28T11:06:27;100572.72;;;32.17;31.60
45813;BME280;31519;45.408;10.962;2023-05-28T11:08:56;100572.25;;;32.49;30.63
45813;BME280;31519;45.408;10.962;2023-05-28T11:11:25;100569.63;;;32.68;30.60
45813;BME280;31519;45.408;10.962;2023-05-28T11:13:55;100574.16;;;31.40;31.88
45813;BME280;31519;45.408;10.962;2023-05-28T11:16:23;100573.78;;;31.04;32.82
45813;BME280;31519;45.408;10.962;2023-05-28T11:19:05;100565.72;;;30.59;33.72
45813;BME280;31519;45.408;10.962;2023-05-28T11:21:51;100563.75;;;30.97;32.83
45813;BME280;31519;45.408;10.962;2023-05-28T11:24:19;100581.28;;;30.36;33.53
45813;BME280;31519;45.408;10.962;2023-05-28T11:26:48;100568.50;;;31.69;32.03
45813;BME280;31519;45.408;10.962;2023-05-28T11:29:19;100553.22;;;32.42;31.36
45813;BME280;31519;45.408;10.962;2023-05-28T11:31:47;100561.31;;;30.07;33.73
45813;BME280;31519;45.408;10.962;2023-05-28T11:34:19;100554.84;;;30.93;33.53
45813;BME280;31519;45.408;10.962;2023-05-28T11:36:48;100550.53;;;31.17;32.68
45813;BME280;31519;45.408;10.962;2023-05-28T11:39:16;100547.97;;;31.36;32.96
45813;BME280;31519;45.408;10.962;2023-05-28T11:41:45;100549.13;;;32.47;31.47
45813;BME280;31519;45.408;10.962;2023-05-28T11:44:20;100550.78;;;30.85;32.67
45813;BME280;31519;45.408;10.962;2023-05-28T11:46:55;100536.81;;;31.52;32.29
45813;BME280;31519;45.408;10.962;2023-05-28T11:49:24;100537.56;;;30.42;32.97
45813;BME280;31519;45.408;10.962;2023-05-28T11:51:53;100525.59;;;30.61;33.90
45813;BME280;31519;45.408;10.962;2023-05-28T11:54:21;100525.97;;;31.92;32.07
45813;BME280;31519;45.408;10.962;2023-05-28T11:56:50;100527.81;;;31.73;32.12
45813;BME280;31519;45.408;10.962;2023-05-28T11:59:22;100528.03;;;32.62;31.01
45813;BME280;31519;45.408;10.962;2023-05-28T12:02:15;100527.16;;;33.23;29.69
45813;BME280;31519;45.408;10.962;2023-05-28T12:04:55;100534.53;;;31.38;31.81
45813;BME280;31519;45.408;10.962;2023-05-28T12:07:48;100524.69;;;31.84;31.40
45813;BME280;31519;45.408;10.962;2023-05-28T12:10:22;100526.66;;;30.38;33.26
45813;BME280;31519;45.408;10.962;2023-05-28T12:12:55;100525.13;;;31.13;32.16
45813;BME280;31519;45.408;10.962;2023-05-28T12:15:28;100516.53;;;30.99;32.85
45813;BME280;31519;45.408;10.962;2023-05-28T12:17:57;100513.59;;;32.18;31.15
45813;BME280;31519;45.408;10.962;2023-05-28T12:20:28;100514.19;;;31.70;31.91
45813;BME280;31519;45.408;10.962;2023-05-28T12:23:08;100513.22;;;30.28;33.53
45813;BME280;31519;45.408;10.962;2023-05-28T12:28:12;100510.81;;;32.80;31.00
45813;BME280;31519;45.408;10.962;2023-05-28T12:30:42;100511.28;;;32.87;29.84
45813;BME280;31519;45.408;10.962;2023-05-28T12:33:12;100506.88;;;32.59;30.60
45813;BME280;31519;45.408;10.962;2023-05-28T12:35:40;100498.66;;;33.26;29.91
45813;BME280;31519;45.408;10.962;2023-05-28T12:38:09;100498.66;;;33.26;29.95
45813;BME280;31519;45.408;10.962;2023-05-28T12:40:37;100492.81;;;33.79;29.35
45813;BME280;31519;45.408;10.962;2023-05-28T12:43:07;100488.03;;;31.74;30.70
45813;BME280;31519;45.408;10.962;2023-05-28T12:45:35;100484.63;;;32.84;30.09
45813;BME280;31519;45.408;10.962;2023-05-28T12:48:05;100489.00;;;33.49;28.87
45813;BME280;31519;45.408;10.962;2023-05-28T12:50:33;100482.94;;;33.96;28.01
45813;BME280;31519;45.408;10.962;2023-05-28T12:53:01;100478.00;;;32.82;29.62
45813;BME280;31519;45.408;10.962;2023-05-28T12:55:32;100492.44;;;31.15;31.79
45813;BME280;31519;45.408;10.962;2023-05-28T12:58:01;100478.25;;;31.04;31.40
45813;BME280;31519;45.408;10.962;2023-05-28T13:00:29;100479.41;;;30.56;32.41
45813;BME280;31519;45.408;10.962;2023-05-28T13:02:58;100488.44;;;31.29;31.50
45813;BME280;31519;45.408;10.962;2023-05-28T13:05:28;100479.50;;;32.03;31.04
45813;BME280;31519;45.408;10.962;2023-05-28T13:08:01;100478.69;;;33.13;29.20
45813;BME280;31519;45.408;10.962;2023-05-28T13:10:30;100475.13;;;32.85;29.33
45813;BME280;31519;45.408;10.962;2023-05-28T13:16:16;100465.41;;;32.01;30.41
45813;BME280;31519;45.408;10.962;2023-05-28T13:18:46;100450.28;;;32.45;30.37
45813;BME280;31519;45.408;10.962;2023-05-28T13:21:14;100445.66;;;32.33;30.13
45813;BME280;31519;45.408;10.962;2023-05-28T13:23:43;100445.66;;;33.82;28.53
45813;BME280;31519;45.408;10.962;2023-05-28T13:26:11;100448.44;;;34.66;27.88
45813;BME280;31519;45.408;10.962;2023-05-28T13:28:40;100457.72;;;35.02;26.93
45813;BME280;31519;45.408;10.962;2023-05-28T13:31:08;100451.03;;;34.61;27.10
45813;BME280;31519;45.408;10.962;2023-05-28T13:33:38;100442.78;;;34.52;27.22
45813;BME280;31519;45.408;10.962;2023-05-28T13:36:06;100452.75;;;33.47;27.87